Terminal Aerodrome Forecast
Issued by NWS

Home | Current Version | Previous Version | Text Only | Print | Product List | Glossary On
Versions: 1 2 3 4 5 6 7 8 9 10 11 12
000
FTUS46 KLOX 042340
TAFWJF
TAF
KWJF 042340Z 0500/0524 22017G25KT P6SM SKC
     FM050300 24014KT P6SM SKC
     FM050700 24010KT P6SM SKC
     FM051800 23012G17KT P6SM SKC
     FM052100 23017G25KT P6SM SKC=

USA.gov is the U.S. government's official web portal to all federal, state and local government web resources and services.